sensor_id;sensor_type;location;lat;lon;timestamp;P1;durP1;ratioP1;P2;durP2;ratioP2
52180;SDS011;38158;53.338;6.514;2022-07-25T00:02:20;4.10;;;2.40;;
52180;SDS011;38158;53.338;6.514;2022-07-25T00:04:46;3.30;;;2.30;;
52180;SDS011;38158;53.338;6.514;2022-07-25T00:07:12;5.07;;;2.30;;
52180;SDS011;38158;53.338;6.514;2022-07-25T00:09:38;4.45;;;2.15;;
52180;SDS011;38158;53.338;6.514;2022-07-25T00:12:04;4.03;;;2.22;;
52180;SDS011;38158;53.338;6.514;2022-07-25T00:14:30;5.20;;;2.55;;
52180;SDS011;38158;53.338;6.514;2022-07-25T00:16:55;3.85;;;2.15;;
52180;SDS011;38158;53.338;6.514;2022-07-25T00:19:21;4.68;;;2.13;;
52180;SDS011;38158;53.338;6.514;2022-07-25T00:21:47;4.65;;;2.13;;
52180;SDS011;38158;53.338;6.514;2022-07-25T00:24:12;3.85;;;2.20;;
52180;SDS011;38158;53.338;6.514;2022-07-25T00:26:38;4.35;;;2.45;;
52180;SDS011;38158;53.338;6.514;2022-07-25T00:29:04;4.20;;;2.35;;
52180;SDS011;38158;53.338;6.514;2022-07-25T00:31:29;5.82;;;2.70;;
52180;SDS011;38158;53.338;6.514;2022-07-25T00:33:55;5.15;;;2.40;;
52180;SDS011;38158;53.338;6.514;2022-07-25T00:36:21;6.43;;;2.42;;
52180;SDS011;38158;53.338;6.514;2022-07-25T00:38:46;6.40;;;2.47;;
52180;SDS011;38158;53.338;6.514;2022-07-25T00:41:12;5.60;;;2.30;;
52180;SDS011;38158;53.338;6.514;2022-07-25T00:43:41;5.50;;;2.20;;
52180;SDS011;38158;53.338;6.514;2022-07-25T00:46:10;3.00;;;2.28;;
52180;SDS011;38158;53.338;6.514;2022-07-25T00:48:37;5.07;;;2.80;;
52180;SDS011;38158;53.338;6.514;2022-07-25T00:51:03;3.50;;;2.25;;
52180;SDS011;38158;53.338;6.514;2022-07-25T00:53:30;4.30;;;3.03;;
52180;SDS011;38158;53.338;6.514;2022-07-25T00:55:56;5.20;;;2.50;;
52180;SDS011;38158;53.338;6.514;2022-07-25T00:58:22;5.43;;;2.42;;
52180;SDS011;38158;53.338;6.514;2022-07-25T01:00:48;4.57;;;2.40;;
52180;SDS011;38158;53.338;6.514;2022-07-25T01:03:13;4.88;;;2.47;;
52180;SDS011;38158;53.338;6.514;2022-07-25T01:05:39;3.85;;;2.42;;
52180;SDS011;38158;53.338;6.514;2022-07-25T01:08:05;4.40;;;2.83;;
52180;SDS011;38158;53.338;6.514;2022-07-25T01:10:32;5.55;;;2.35;;
52180;SDS011;38158;53.338;6.514;2022-07-25T01:12:58;5.03;;;2.88;;
52180;SDS011;38158;53.338;6.514;2022-07-25T01:15:24;5.00;;;3.03;;
52180;SDS011;38158;53.338;6.514;2022-07-25T01:17:50;6.35;;;2.78;;
52180;SDS011;38158;53.338;6.514;2022-07-25T01:20:24;5.45;;;2.95;;
52180;SDS011;38158;53.338;6.514;2022-07-25T01:22:51;5.03;;;2.92;;
52180;SDS011;38158;53.338;6.514;2022-07-25T01:25:17;5.93;;;3.13;;
52180;SDS011;38158;53.338;6.514;2022-07-25T01:27:43;4.30;;;3.22;;
52180;SDS011;38158;53.338;6.514;2022-07-25T01:30:10;4.82;;;2.83;;
52180;SDS011;38158;53.338;6.514;2022-07-25T01:32:37;5.85;;;3.25;;
52180;SDS011;38158;53.338;6.514;2022-07-25T01:35:04;8.23;;;2.88;;
52180;SDS011;38158;53.338;6.514;2022-07-25T01:37:31;6.30;;;3.13;;
52180;SDS011;38158;53.338;6.514;2022-07-25T01:39:56;5.63;;;3.20;;
52180;SDS011;38158;53.338;6.514;2022-07-25T01:42:22;4.20;;;2.90;;
52180;SDS011;38158;53.338;6.514;2022-07-25T01:44:48;4.82;;;2.97;;
52180;SDS011;38158;53.338;6.514;2022-07-25T01:47:14;5.00;;;2.80;;
52180;SDS011;38158;53.338;6.514;2022-07-25T01:52:07;6.82;;;2.92;;
52180;SDS011;38158;53.338;6.514;2022-07-25T01:54:33;3.85;;;2.47;;
52180;SDS011;38158;53.338;6.514;2022-07-25T01:56:58;6.50;;;3.42;;
52180;SDS011;38158;53.338;6.514;2022-07-25T01:59:24;5.00;;;3.78;;
52180;SDS011;38158;53.338;6.514;2022-07-25T02:01:50;6.53;;;3.00;;
52180;SDS011;38158;53.338;6.514;2022-07-25T02:04:16;5.78;;;3.40;;
52180;SDS011;38158;53.338;6.514;2022-07-25T02:06:41;5.93;;;3.30;;
52180;SDS011;38158;53.338;6.514;2022-07-25T02:09:07;5.07;;;3.72;;
52180;SDS011;38158;53.338;6.514;2022-07-25T02:11:34;4.97;;;3.53;;
52180;SDS011;38158;53.338;6.514;2022-07-25T02:14:00;8.70;;;4.22;;
52180;SDS011;38158;53.338;6.514;2022-07-25T02:16:26;4.38;;;2.90;;
52180;SDS011;38158;53.338;6.514;2022-07-25T02:18:52;6.28;;;3.22;;
52180;SDS011;38158;53.338;6.514;2022-07-25T02:21:18;8.15;;;2.90;;
52180;SDS011;38158;53.338;6.514;2022-07-25T02:23:44;6.35;;;2.88;;
52180;SDS011;38158;53.338;6.514;2022-07-25T02:26:10;5.85;;;3.28;;
52180;SDS011;38158;53.338;6.514;2022-07-25T02:28:36;5.93;;;2.97;;
52180;SDS011;38158;53.338;6.514;2022-07-25T02:31:02;4.32;;;2.75;;
52180;SDS011;38158;53.338;6.514;2022-07-25T02:33:28;4.40;;;3.08;;
52180;SDS011;38158;53.338;6.514;2022-07-25T02:35:53;6.18;;;2.88;;
52180;SDS011;38158;53.338;6.514;2022-07-25T02:38:19;5.07;;;3.25;;
52180;SDS011;38158;53.338;6.514;2022-07-25T02:40:49;4.65;;;2.85;;
52180;SDS011;38158;53.338;6.514;2022-07-25T02:43:17;4.60;;;2.90;;
52180;SDS011;38158;53.338;6.514;2022-07-25T02:45:43;4.53;;;2.80;;
52180;SDS011;38158;53.338;6.514;2022-07-25T02:48:09;4.63;;;2.47;;
52180;SDS011;38158;53.338;6.514;2022-07-25T02:50:35;5.82;;;2.75;;
52180;SDS011;38158;53.338;6.514;2022-07-25T02:53:01;5.43;;;3.20;;
52180;SDS011;38158;53.338;6.514;2022-07-25T02:55:27;4.57;;;3.17;;
52180;SDS011;38158;53.338;6.514;2022-07-25T02:57:53;6.28;;;3.55;;
52180;SDS011;38158;53.338;6.514;2022-07-25T03:00:19;5.60;;;3.20;;
52180;SDS011;38158;53.338;6.514;2022-07-25T03:02:44;5.85;;;2.90;;
52180;SDS011;38158;53.338;6.514;2022-07-25T03:05:11;5.00;;;3.10;;
52180;SDS011;38158;53.338;6.514;2022-07-25T03:07:38;4.55;;;3.00;;
52180;SDS011;38158;53.338;6.514;2022-07-25T03:10:05;5.45;;;2.95;;
52180;SDS011;38158;53.338;6.514;2022-07-25T03:15:01;4.63;;;2.67;;
52180;SDS011;38158;53.338;6.514;2022-07-25T03:17:27;5.45;;;3.10;;
52180;SDS011;38158;53.338;6.514;2022-07-25T03:19:53;4.70;;;3.30;;
52180;SDS011;38158;53.338;6.514;2022-07-25T03:22:20;4.93;;;3.13;;
52180;SDS011;38158;53.338;6.514;2022-07-25T03:24:46;8.02;;;3.42;;
52180;SDS011;38158;53.338;6.514;2022-07-25T03:27:12;6.90;;;3.05;;
52180;SDS011;38158;53.338;6.514;2022-07-25T03:29:38;5.53;;;2.55;;
52180;SDS011;38158;53.338;6.514;2022-07-25T03:32:04;3.90;;;2.92;;
52180;SDS011;38158;53.338;6.514;2022-07-25T03:34:31;5.50;;;3.40;;
52180;SDS011;38158;53.338;6.514;2022-07-25T03:36:56;5.95;;;3.33;;
52180;SDS011;38158;53.338;6.514;2022-07-25T03:39:22;5.03;;;3.28;;
52180;SDS011;38158;53.338;6.514;2022-07-25T03:41:48;5.60;;;3.40;;
52180;SDS011;38158;53.338;6.514;2022-07-25T03:44:16;6.18;;;3.22;;
52180;SDS011;38158;53.338;6.514;2022-07-25T03:46:43;5.57;;;3.67;;
52180;SDS011;38158;53.338;6.514;2022-07-25T03:49:08;6.75;;;3.90;;
52180;SDS011;38158;53.338;6.514;2022-07-25T03:51:34;5.22;;;3.60;;
52180;SDS011;38158;53.338;6.514;2022-07-25T03:54:00;6.75;;;3.78;;
52180;SDS011;38158;53.338;6.514;2022-07-25T03:56:26;6.88;;;4.40;;
52180;SDS011;38158;53.338;6.514;2022-07-25T03:58:52;9.95;;;5.00;;
52180;SDS011;38158;53.338;6.514;2022-07-25T04:01:18;7.63;;;4.70;;
52180;SDS011;38158;53.338;6.514;2022-07-25T04:03:44;6.90;;;5.78;;
52180;SDS011;38158;53.338;6.514;2022-07-25T04:06:10;7.47;;;5.60;;
52180;SDS011;38158;53.338;6.514;2022-07-25T04:08:36;8.30;;;5.63;;
52180;SDS011;38158;53.338;6.514;2022-07-25T04:11:01;8.70;;;6.00;;
52180;SDS011;38158;53.338;6.514;2022-07-25T04:13:27;10.00;;;5.40;;
52180;SDS011;38158;53.338;6.514;2022-07-25T04:15:53;7.95;;;5.70;;
52180;SDS011;38158;53.338;6.514;2022-07-25T04:18:19;11.40;;;6.15;;
52180;SDS011;38158;53.338;6.514;2022-07-25T04:20:45;7.43;;;5.75;;
52180;SDS011;38158;53.338;6.514;2022-07-25T04:23:10;9.55;;;5.68;;
52180;SDS011;38158;53.338;6.514;2022-07-25T04:25:36;9.50;;;6.60;;
52180;SDS011;38158;53.338;6.514;2022-07-25T04:28:02;12.32;;;5.68;;
52180;SDS011;38158;53.338;6.514;2022-07-25T04:30:28;10.73;;;7.15;;
52180;SDS011;38158;53.338;6.514;2022-07-25T04:32:53;10.63;;;6.30;;
52180;SDS011;38158;53.338;6.514;2022-07-25T04:35:19;8.57;;;5.47;;
52180;SDS011;38158;53.338;6.514;2022-07-25T04:37:45;9.93;;;6.88;;
52180;SDS011;38158;53.338;6.514;2022-07-25T04:40:11;7.97;;;6.13;;
52180;SDS011;38158;53.338;6.514;2022-07-25T04:42:36;12.07;;;7.20;;
52180;SDS011;38158;53.338;6.514;2022-07-25T04:45:02;15.80;;;7.95;;
52180;SDS011;38158;53.338;6.514;2022-07-25T04:47:28;10.33;;;7.23;;
52180;SDS011;38158;53.338;6.514;2022-07-25T04:49:54;11.40;;;7.75;;
52180;SDS011;38158;53.338;6.514;2022-07-25T04:52:20;8.52;;;7.40;;
52180;SDS011;38158;53.338;6.514;2022-07-25T04:54:45;12.20;;;8.23;;
52180;SDS011;38158;53.338;6.514;2022-07-25T04:57:11;11.85;;;8.38;;
52180;SDS011;38158;53.338;6.514;2022-07-25T04:59:37;12.32;;;8.68;;
52180;SDS011;38158;53.338;6.514;2022-07-25T05:02:02;13.65;;;10.15;;
52180;SDS011;38158;53.338;6.514;2022-07-25T05:04:28;15.80;;;10.48;;
52180;SDS011;38158;53.338;6.514;2022-07-25T05:06:54;13.52;;;10.05;;
52180;SDS011;38158;53.338;6.514;2022-07-25T05:09:20;15.65;;;9.70;;
52180;SDS011;38158;53.338;6.514;2022-07-25T05:11:45;14.38;;;10.52;;
52180;SDS011;38158;53.338;6.514;2022-07-25T05:14:11;13.73;;;8.85;;
52180;SDS011;38158;53.338;6.514;2022-07-25T05:16:37;11.77;;;9.85;;
52180;SDS011;38158;53.338;6.514;2022-07-25T05:19:02;13.88;;;10.20;;
52180;SDS011;38158;53.338;6.514;2022-07-25T05:21:28;13.90;;;10.65;;
52180;SDS011;38158;53.338;6.514;2022-07-25T05:23:53;14.15;;;11.18;;
52180;SDS011;38158;53.338;6.514;2022-07-25T05:26:19;11.35;;;9.60;;
52180;SDS011;38158;53.338;6.514;2022-07-25T05:28:45;14.32;;;10.05;;
52180;SDS011;38158;53.338;6.514;2022-07-25T05:31:10;13.88;;;10.18;;
52180;SDS011;38158;53.338;6.514;2022-07-25T05:33:36;12.25;;;10.20;;
52180;SDS011;38158;53.338;6.514;2022-07-25T05:36:02;12.55;;;10.02;;
52180;SDS011;38158;53.338;6.514;2022-07-25T05:38:29;11.50;;;9.80;;
52180;SDS011;38158;53.338;6.514;2022-07-25T05:40:55;14.73;;;10.05;;
52180;SDS011;38158;53.338;6.514;2022-07-25T05:43:20;14.05;;;10.13;;
52180;SDS011;38158;53.338;6.514;2022-07-25T05:45:46;13.30;;;10.00;;
52180;SDS011;38158;53.338;6.514;2022-07-25T05:48:12;13.23;;;10.48;;
52180;SDS011;38158;53.338;6.514;2022-07-25T05:50:39;19.98;;;10.85;;
52180;SDS011;38158;53.338;6.514;2022-07-25T05:53:05;15.77;;;11.52;;
52180;SDS011;38158;53.338;6.514;2022-07-25T05:55:31;13.30;;;10.25;;
52180;SDS011;38158;53.338;6.514;2022-07-25T05:57:57;14.23;;;11.82;;
52180;SDS011;38158;53.338;6.514;2022-07-25T06:00:23;15.63;;;11.23;;
52180;SDS011;38158;53.338;6.514;2022-07-25T06:02:49;12.32;;;10.10;;
52180;SDS011;38158;53.338;6.514;2022-07-25T06:05:14;15.52;;;12.20;;
52180;SDS011;38158;53.338;6.514;2022-07-25T06:07:40;14.57;;;11.50;;
52180;SDS011;38158;53.338;6.514;2022-07-25T06:10:06;13.95;;;11.50;;
52180;SDS011;38158;53.338;6.514;2022-07-25T06:12:32;17.25;;;11.40;;
52180;SDS011;38158;53.338;6.514;2022-07-25T06:14:58;15.07;;;10.85;;
52180;SDS011;38158;53.338;6.514;2022-07-25T06:17:24;13.85;;;11.23;;
52180;SDS011;38158;53.338;6.514;2022-07-25T06:19:50;15.57;;;11.73;;
52180;SDS011;38158;53.338;6.514;2022-07-25T06:22:16;15.90;;;11.43;;
52180;SDS011;38158;53.338;6.514;2022-07-25T06:24:43;13.98;;;10.88;;
52180;SDS011;38158;53.338;6.514;2022-07-25T06:27:09;14.65;;;11.60;;
52180;SDS011;38158;53.338;6.514;2022-07-25T06:29:38;18.05;;;11.80;;
52180;SDS011;38158;53.338;6.514;2022-07-25T06:32:04;18.30;;;12.88;;
52180;SDS011;38158;53.338;6.514;2022-07-25T06:34:30;14.02;;;11.80;;
52180;SDS011;38158;53.338;6.514;2022-07-25T06:36:56;15.35;;;11.02;;
52180;SDS011;38158;53.338;6.514;2022-07-25T06:39:22;14.53;;;10.77;;
52180;SDS011;38158;53.338;6.514;2022-07-25T06:41:49;17.63;;;10.68;;
52180;SDS011;38158;53.338;6.514;2022-07-25T06:44:15;13.10;;;11.00;;
52180;SDS011;38158;53.338;6.514;2022-07-25T06:46:41;11.50;;;9.73;;
52180;SDS011;38158;53.338;6.514;2022-07-25T06:49:06;14.43;;;10.63;;
52180;SDS011;38158;53.338;6.514;2022-07-25T06:51:32;20.05;;;11.40;;
52180;SDS011;38158;53.338;6.514;2022-07-25T06:53:58;14.90;;;10.88;;
52180;SDS011;38158;53.338;6.514;2022-07-25T06:56:24;15.18;;;12.23;;
52180;SDS011;38158;53.338;6.514;2022-07-25T06:58:52;15.88;;;11.73;;
52180;SDS011;38158;53.338;6.514;2022-07-25T07:01:18;13.43;;;10.55;;
52180;SDS011;38158;53.338;6.514;2022-07-25T07:03:44;14.90;;;11.82;;
52180;SDS011;38158;53.338;6.514;2022-07-25T07:06:10;15.82;;;11.82;;
52180;SDS011;38158;53.338;6.514;2022-07-25T07:08:35;14.85;;;11.27;;
52180;SDS011;38158;53.338;6.514;2022-07-25T07:11:02;14.50;;;11.23;;
52180;SDS011;38158;53.338;6.514;2022-07-25T07:13:28;15.40;;;11.40;;
52180;SDS011;38158;53.338;6.514;2022-07-25T07:15:53;18.17;;;10.90;;
52180;SDS011;38158;53.338;6.514;2022-07-25T07:18:19;13.45;;;10.23;;
52180;SDS011;38158;53.338;6.514;2022-07-25T07:20:45;16.38;;;10.32;;
52180;SDS011;38158;53.338;6.514;2022-07-25T07:23:11;15.00;;;11.00;;
52180;SDS011;38158;53.338;6.514;2022-07-25T07:25:37;14.97;;;10.57;;
52180;SDS011;38158;53.338;6.514;2022-07-25T07:28:03;17.45;;;10.85;;
52180;SDS011;38158;53.338;6.514;2022-07-25T07:30:29;14.48;;;9.77;;
52180;SDS011;38158;53.338;6.514;2022-07-25T07:32:55;15.05;;;9.52;;
52180;SDS011;38158;53.338;6.514;2022-07-25T07:35:21;11.50;;;8.43;;
52180;SDS011;38158;53.338;6.514;2022-07-25T07:37:47;11.40;;;9.02;;
52180;SDS011;38158;53.338;6.514;2022-07-25T07:40:13;11.73;;;8.50;;
52180;SDS011;38158;53.338;6.514;2022-07-25T07:42:40;11.80;;;7.57;;
52180;SDS011;38158;53.338;6.514;2022-07-25T07:45:10;10.27;;;7.13;;
52180;SDS011;38158;53.338;6.514;2022-07-25T07:47:37;9.98;;;6.90;;
52180;SDS011;38158;53.338;6.514;2022-07-25T07:50:03;8.73;;;5.78;;
52180;SDS011;38158;53.338;6.514;2022-07-25T07:52:29;10.25;;;5.93;;
52180;SDS011;38158;53.338;6.514;2022-07-25T07:54:55;9.82;;;5.95;;
52180;SDS011;38158;53.338;6.514;2022-07-25T07:57:39;10.85;;;5.90;;
52180;SDS011;38158;53.338;6.514;2022-07-25T08:00:05;7.50;;;5.65;;
52180;SDS011;38158;53.338;6.514;2022-07-25T08:02:31;8.43;;;5.25;;
52180;SDS011;38158;53.338;6.514;2022-07-25T08:04:57;10.40;;;5.15;;
52180;SDS011;38158;53.338;6.514;2022-07-25T08:07:23;9.40;;;5.23;;
52180;SDS011;38158;53.338;6.514;2022-07-25T08:09:48;10.00;;;5.63;;
52180;SDS011;38158;53.338;6.514;2022-07-25T08:12:14;13.30;;;6.40;;
52180;SDS011;38158;53.338;6.514;2022-07-25T08:14:40;6.95;;;4.10;;
52180;SDS011;38158;53.338;6.514;2022-07-25T08:17:05;8.73;;;4.30;;
52180;SDS011;38158;53.338;6.514;2022-07-25T08:19:31;5.70;;;3.80;;
52180;SDS011;38158;53.338;6.514;2022-07-25T08:21:57;6.47;;;2.97;;
52180;SDS011;38158;53.338;6.514;2022-07-25T08:24:22;5.57;;;2.70;;
52180;SDS011;38158;53.338;6.514;2022-07-25T08:26:48;4.00;;;2.28;;
52180;SDS011;38158;53.338;6.514;2022-07-25T08:29:14;5.20;;;2.53;;
52180;SDS011;38158;53.338;6.514;2022-07-25T08:31:40;4.73;;;2.57;;
52180;SDS011;38158;53.338;6.514;2022-07-25T08:34:05;4.10;;;2.30;;
52180;SDS011;38158;53.338;6.514;2022-07-25T08:36:31;4.90;;;2.38;;
52180;SDS011;38158;53.338;6.514;2022-07-25T08:38:56;3.63;;;2.10;;
52180;SDS011;38158;53.338;6.514;2022-07-25T08:41:22;4.70;;;2.53;;
52180;SDS011;38158;53.338;6.514;2022-07-25T08:43:48;4.35;;;2.20;;
52180;SDS011;38158;53.338;6.514;2022-07-25T08:46:14;5.32;;;2.17;;
52180;SDS011;38158;53.338;6.514;2022-07-25T08:48:40;3.45;;;2.05;;
52180;SDS011;38158;53.338;6.514;2022-07-25T08:51:08;6.43;;;2.38;;
52180;SDS011;38158;53.338;6.514;2022-07-25T08:53:35;6.25;;;2.33;;
52180;SDS011;38158;53.338;6.514;2022-07-25T08:56:04;4.93;;;1.80;;
52180;SDS011;38158;53.338;6.514;2022-07-25T08:58:31;4.72;;;2.00;;
52180;SDS011;38158;53.338;6.514;2022-07-25T09:00:57;5.13;;;1.90;;
52180;SDS011;38158;53.338;6.514;2022-07-25T09:03:23;8.10;;;3.00;;
52180;SDS011;38158;53.338;6.514;2022-07-25T09:05:50;4.28;;;2.40;;
52180;SDS011;38158;53.338;6.514;2022-07-25T09:08:16;4.88;;;1.98;;
52180;SDS011;38158;53.338;6.514;2022-07-25T09:10:47;3.28;;;1.73;;
52180;SDS011;38158;53.338;6.514;2022-07-25T09:13:14;3.97;;;1.80;;
52180;SDS011;38158;53.338;6.514;2022-07-25T09:18:11;5.60;;;1.95;;
52180;SDS011;38158;53.338;6.514;2022-07-25T09:20:48;5.95;;;1.63;;
52180;SDS011;38158;53.338;6.514;2022-07-25T09:23:32;4.35;;;1.83;;
52180;SDS011;38158;53.338;6.514;2022-07-25T09:28:44;2.92;;;1.60;;
52180;SDS011;38158;53.338;6.514;2022-07-25T09:31:12;3.20;;;1.50;;
52180;SDS011;38158;53.338;6.514;2022-07-25T09:36:10;7.00;;;1.90;;
52180;SDS011;38158;53.338;6.514;2022-07-25T09:38:36;4.97;;;1.40;;
52180;SDS011;38158;53.338;6.514;2022-07-25T09:41:02;2.70;;;1.40;;
52180;SDS011;38158;53.338;6.514;2022-07-25T09:43:39;5.05;;;1.52;;
52180;SDS011;38158;53.338;6.514;2022-07-25T09:46:06;5.63;;;1.38;;
52180;SDS011;38158;53.338;6.514;2022-07-25T09:48:33;4.90;;;1.50;;
52180;SDS011;38158;53.338;6.514;2022-07-25T09:51:01;4.18;;;1.42;;
52180;SDS011;38158;53.338;6.514;2022-07-25T09:53:28;4.18;;;1.40;;
52180;SDS011;38158;53.338;6.514;2022-07-25T09:55:54;3.53;;;1.75;;
52180;SDS011;38158;53.338;6.514;2022-07-25T09:58:24;3.85;;;1.50;;
52180;SDS011;38158;53.338;6.514;2022-07-25T10:01:00;4.75;;;1.42;;
52180;SDS011;38158;53.338;6.514;2022-07-25T10:06:37;4.55;;;2.03;;
52180;SDS011;38158;53.338;6.514;2022-07-25T10:09:08;5.95;;;2.22;;
52180;SDS011;38158;53.338;6.514;2022-07-25T10:11:35;7.20;;;2.05;;
52180;SDS011;38158;53.338;6.514;2022-07-25T10:14:08;6.50;;;2.10;;
52180;SDS011;38158;53.338;6.514;2022-07-25T10:16:43;7.18;;;2.22;;
52180;SDS011;38158;53.338;6.514;2022-07-25T10:19:10;4.28;;;1.90;;
52180;SDS011;38158;53.338;6.514;2022-07-25T10:21:36;7.30;;;2.38;;
52180;SDS011;38158;53.338;6.514;2022-07-25T10:24:06;14.50;;;8.00;;
52180;SDS011;38158;53.338;6.514;2022-07-25T10:26:49;5.22;;;2.72;;
52180;SDS011;38158;53.338;6.514;2022-07-25T10:29:16;4.82;;;2.42;;
52180;SDS011;38158;53.338;6.514;2022-07-25T10:31:42;5.10;;;2.28;;
52180;SDS011;38158;53.338;6.514;2022-07-25T10:34:12;6.10;;;2.70;;
52180;SDS011;38158;53.338;6.514;2022-07-25T10:39:07;8.35;;;2.53;;
52180;SDS011;38158;53.338;6.514;2022-07-25T10:41:39;5.72;;;3.03;;
52180;SDS011;38158;53.338;6.514;2022-07-25T10:44:10;5.20;;;2.38;;
52180;SDS011;38158;53.338;6.514;2022-07-25T10:46:37;6.60;;;2.80;;
52180;SDS011;38158;53.338;6.514;2022-07-25T10:49:04;8.18;;;2.60;;
52180;SDS011;38158;53.338;6.514;2022-07-25T10:51:32;5.85;;;2.33;;
52180;SDS011;38158;53.338;6.514;2022-07-25T10:54:21;6.25;;;2.50;;
52180;SDS011;38158;53.338;6.514;2022-07-25T10:56:50;5.63;;;2.20;;
52180;SDS011;38158;53.338;6.514;2022-07-25T10:59:24;6.85;;;2.55;;
52180;SDS011;38158;53.338;6.514;2022-07-25T11:01:52;6.47;;;2.42;;
52180;SDS011;38158;53.338;6.514;2022-07-25T11:04:18;6.50;;;2.42;;
52180;SDS011;38158;53.338;6.514;2022-07-25T11:06:43;4.63;;;2.50;;
52180;SDS011;38158;53.338;6.514;2022-07-25T11:09:13;7.40;;;1.88;;
52180;SDS011;38158;53.338;6.514;2022-07-25T11:11:44;7.18;;;1.85;;
52180;SDS011;38158;53.338;6.514;2022-07-25T11:14:15;9.13;;;2.50;;
52180;SDS011;38158;53.338;6.514;2022-07-25T11:16:52;11.63;;;2.40;;
52180;SDS011;38158;53.338;6.514;2022-07-25T11:19:21;5.57;;;2.00;;
52180;SDS011;38158;53.338;6.514;2022-07-25T11:21:49;8.10;;;1.90;;
52180;SDS011;38158;53.338;6.514;2022-07-25T11:24:16;6.30;;;1.52;;
52180;SDS011;38158;53.338;6.514;2022-07-25T11:26:48;10.20;;;2.30;;
52180;SDS011;38158;53.338;6.514;2022-07-25T11:29:20;7.45;;;2.17;;
52180;SDS011;38158;53.338;6.514;2022-07-25T11:34:21;8.52;;;2.17;;
52180;SDS011;38158;53.338;6.514;2022-07-25T11:36:49;7.97;;;2.33;;
52180;SDS011;38158;53.338;6.514;2022-07-25T11:39:19;10.43;;;2.90;;
52180;SDS011;38158;53.338;6.514;2022-07-25T11:41:45;7.80;;;2.30;;
52180;SDS011;38158;53.338;6.514;2022-07-25T11:44:11;6.75;;;1.98;;
52180;SDS011;38158;53.338;6.514;2022-07-25T11:46:40;9.52;;;2.08;;
52180;SDS011;38158;53.338;6.514;2022-07-25T11:49:08;7.70;;;2.33;;
52180;SDS011;38158;53.338;6.514;2022-07-25T11:51:37;6.95;;;1.90;;
52180;SDS011;38158;53.338;6.514;2022-07-25T11:54:09;7.20;;;1.85;;
52180;SDS011;38158;53.338;6.514;2022-07-25T11:56:37;7.70;;;1.70;;
52180;SDS011;38158;53.338;6.514;2022-07-25T11:59:03;8.05;;;2.53;;
52180;SDS011;38158;53.338;6.514;2022-07-25T12:01:37;15.23;;;2.20;;
52180;SDS011;38158;53.338;6.514;2022-07-25T12:06:34;9.60;;;1.88;;
52180;SDS011;38158;53.338;6.514;2022-07-25T12:09:10;9.00;;;2.05;;
52180;SDS011;38158;53.338;6.514;2022-07-25T12:11:37;9.10;;;2.00;;
52180;SDS011;38158;53.338;6.514;2022-07-25T12:14:03;8.68;;;2.28;;
52180;SDS011;38158;53.338;6.514;2022-07-25T12:16:30;6.38;;;1.77;;
52180;SDS011;38158;53.338;6.514;2022-07-25T12:21:23;5.95;;;2.20;;
52180;SDS011;38158;53.338;6.514;2022-07-25T12:23:50;7.18;;;2.13;;
52180;SDS011;38158;53.338;6.514;2022-07-25T12:26:16;8.80;;;2.03;;
52180;SDS011;38158;53.338;6.514;2022-07-25T12:31:48;9.40;;;1.80;;
52180;SDS011;38158;53.338;6.514;2022-07-25T12:34:13;10.32;;;2.58;;
52180;SDS011;38158;53.338;6.514;2022-07-25T12:36:39;8.13;;;2.08;;
52180;SDS011;38158;53.338;6.514;2022-07-25T12:39:08;10.48;;;2.38;;
52180;SDS011;38158;53.338;6.514;2022-07-25T12:41:34;7.97;;;2.03;;
52180;SDS011;38158;53.338;6.514;2022-07-25T12:44:00;7.60;;;1.83;;
52180;SDS011;38158;53.338;6.514;2022-07-25T12:46:26;7.68;;;1.42;;
52180;SDS011;38158;53.338;6.514;2022-07-25T12:48:52;8.87;;;2.57;;
52180;SDS011;38158;53.338;6.514;2022-07-25T12:51:18;10.03;;;1.63;;
52180;SDS011;38158;53.338;6.514;2022-07-25T12:53:44;9.20;;;1.80;;
52180;SDS011;38158;53.338;6.514;2022-07-25T12:56:11;9.35;;;2.00;;
52180;SDS011;38158;53.338;6.514;2022-07-25T12:58:36;3.97;;;1.60;;
52180;SDS011;38158;53.338;6.514;2022-07-25T13:01:02;5.65;;;1.70;;
52180;SDS011;38158;53.338;6.514;2022-07-25T13:03:30;7.47;;;1.55;;
52180;SDS011;38158;53.338;6.514;2022-07-25T13:05:55;8.02;;;1.67;;
52180;SDS011;38158;53.338;6.514;2022-07-25T13:08:21;9.83;;;2.07;;
52180;SDS011;38158;53.338;6.514;2022-07-25T13:10:46;9.48;;;2.40;;
52180;SDS011;38158;53.338;6.514;2022-07-25T13:13:12;10.35;;;2.08;;
52180;SDS011;38158;53.338;6.514;2022-07-25T13:15:38;8.18;;;1.83;;
52180;SDS011;38158;53.338;6.514;2022-07-25T13:18:04;7.75;;;1.70;;
52180;SDS011;38158;53.338;6.514;2022-07-25T13:20:30;9.50;;;2.25;;
52180;SDS011;38158;53.338;6.514;2022-07-25T13:22:59;12.23;;;2.03;;
52180;SDS011;38158;53.338;6.514;2022-07-25T13:25:25;8.57;;;2.22;;
52180;SDS011;38158;53.338;6.514;2022-07-25T13:27:50;7.05;;;1.60;;
52180;SDS011;38158;53.338;6.514;2022-07-25T13:30:16;10.10;;;2.13;;
52180;SDS011;38158;53.338;6.514;2022-07-25T13:32:42;7.05;;;2.20;;
52180;SDS011;38158;53.338;6.514;2022-07-25T13:35:07;7.00;;;1.77;;
52180;SDS011;38158;53.338;6.514;2022-07-25T13:37:33;8.05;;;2.10;;
52180;SDS011;38158;53.338;6.514;2022-07-25T13:39:59;7.88;;;1.55;;
52180;SDS011;38158;53.338;6.514;2022-07-25T13:42:25;9.70;;;1.73;;
52180;SDS011;38158;53.338;6.514;2022-07-25T13:44:50;8.65;;;2.25;;
52180;SDS011;38158;53.338;6.514;2022-07-25T13:47:16;8.63;;;2.38;;
52180;SDS011;38158;53.338;6.514;2022-07-25T13:49:42;7.22;;;2.33;;
52180;SDS011;38158;53.338;6.514;2022-07-25T13:52:08;8.57;;;1.88;;
52180;SDS011;38158;53.338;6.514;2022-07-25T13:54:33;8.43;;;2.08;;
52180;SDS011;38158;53.338;6.514;2022-07-25T13:57:00;7.75;;;2.17;;
52180;SDS011;38158;53.338;6.514;2022-07-25T13:59:27;6.95;;;2.20;;
52180;SDS011;38158;53.338;6.514;2022-07-25T14:01:53;9.40;;;2.33;;
52180;SDS011;38158;53.338;6.514;2022-07-25T14:04:18;13.45;;;3.00;;
52180;SDS011;38158;53.338;6.514;2022-07-25T14:06:44;9.65;;;2.53;;
52180;SDS011;38158;53.338;6.514;2022-07-25T14:09:10;11.00;;;2.88;;
52180;SDS011;38158;53.338;6.514;2022-07-25T14:11:36;15.35;;;2.53;;
52180;SDS011;38158;53.338;6.514;2022-07-25T14:14:01;6.50;;;2.17;;
52180;SDS011;38158;53.338;6.514;2022-07-25T14:16:27;8.13;;;2.72;;
52180;SDS011;38158;53.338;6.514;2022-07-25T14:18:53;8.40;;;2.22;;
52180;SDS011;38158;53.338;6.514;2022-07-25T14:21:19;10.02;;;2.25;;
52180;SDS011;38158;53.338;6.514;2022-07-25T14:23:45;8.10;;;2.08;;
52180;SDS011;38158;53.338;6.514;2022-07-25T14:26:11;8.25;;;2.22;;
52180;SDS011;38158;53.338;6.514;2022-07-25T14:28:37;11.65;;;2.58;;
52180;SDS011;38158;53.338;6.514;2022-07-25T14:31:03;7.25;;;2.17;;
52180;SDS011;38158;53.338;6.514;2022-07-25T14:33:28;8.27;;;1.85;;
52180;SDS011;38158;53.338;6.514;2022-07-25T14:35:54;6.50;;;1.95;;
52180;SDS011;38158;53.338;6.514;2022-07-25T14:38:20;7.30;;;2.13;;
52180;SDS011;38158;53.338;6.514;2022-07-25T14:40:46;6.72;;;2.38;;
52180;SDS011;38158;53.338;6.514;2022-07-25T14:43:12;9.63;;;3.17;;
52180;SDS011;38158;53.338;6.514;2022-07-25T14:45:39;10.63;;;2.90;;
52180;SDS011;38158;53.338;6.514;2022-07-25T14:48:05;10.00;;;2.45;;
52180;SDS011;38158;53.338;6.514;2022-07-25T14:50:31;11.55;;;2.25;;
52180;SDS011;38158;53.338;6.514;2022-07-25T14:52:57;15.75;;;3.03;;
52180;SDS011;38158;53.338;6.514;2022-07-25T14:55:22;8.95;;;2.00;;
52180;SDS011;38158;53.338;6.514;2022-07-25T15:00:15;8.77;;;2.40;;
52180;SDS011;38158;53.338;6.514;2022-07-25T15:02:41;8.73;;;2.10;;
52180;SDS011;38158;53.338;6.514;2022-07-25T15:05:07;9.43;;;1.77;;
52180;SDS011;38158;53.338;6.514;2022-07-25T15:07:35;7.47;;;1.70;;
52180;SDS011;38158;53.338;6.514;2022-07-25T15:10:01;7.28;;;1.65;;